Schedule Details


Flight Number: CTN4436
Departure: Franjo Tudman (LDZA) at 06:45
Arrival: Munich (EDDM) at 08:00
Route: PODET L603 KFT L173 MORED Q112 NAPSA

Weather Information
LDZA 191130Z 10008KT 070V170 CAVOK 13/M01 Q1020 NOSIG
EDDM 191120Z 25025KT 9999 VCSH SCT020TCU SCT030 06/01 Q1018 TEMPO 4000 SHRA
Schedule Frequency

Route Map